Time;durP1;ratioP1;P1;durP2;ratioP2;P2;SDS_P1;SDS_P2;PMS_P1;PMS_P2;Temp;Humidity;BMP_temperature;BMP_pressure;BME280_temperature;BME280_humidity;BME280_pressure;Samples;Min_cycle;Max_cycle;Signal;HPM_P1;HPM_P2
2020/12/26 00:01:12;;;;;;;31.33;19.32;;;;;;;9.48;76.56;100038.52;1603160;88;21162;-65
2020/12/26 00:03:39;;;;;;;31.50;19.23;;;;;;;9.48;76.60;100045.52;1626620;88;21186;-65
2020/12/26 00:06:07;;;;;;;29.07;18.27;;;;;;;9.47;76.64;100036.78;1607946;88;21633;-65
2020/12/26 00:08:35;;;;;;;26.62;17.75;;;;;;;9.48;76.62;100038.95;1603217;89;21240;-64
2020/12/26 00:11:03;;;;;;;35.78;19.80;;;;;;;9.44;76.71;100037.25;1606925;88;21162;-65
2020/12/26 00:13:30;;;;;;;27.73;17.87;;;;;;;9.45;76.54;100049.50;1568926;88;21126;-64
2020/12/26 00:15:58;;;;;;;24.23;15.98;;;;;;;9.43;76.58;100053.90;1628853;87;21230;-64
2020/12/26 00:18:25;;;;;;;27.42;17.20;;;;;;;9.41;76.60;100045.16;1628802;88;21634;-65
2020/12/26 00:20:53;;;;;;;27.70;17.82;;;;;;;9.37;76.58;100037.78;1618301;87;21155;-64
2020/12/26 00:23:21;;;;;;;29.00;18.42;;;;;;;9.32;76.76;100031.25;1623475;88;21119;-64
2020/12/26 00:25:48;;;;;;;31.20;18.87;;;;;;;9.30;76.79;100036.12;1617090;88;21569;-64
2020/12/26 00:28:16;;;;;;;33.18;18.60;;;;;;;9.25;76.85;100036.19;1603109;89;21328;-64
2020/12/26 00:30:43;;;;;;;29.15;18.67;;;;;;;9.22;76.97;100034.45;1622750;87;21123;-65
2020/12/26 00:33:11;;;;;;;27.67;17.62;;;;;;;9.21;77.01;100039.27;1623666;88;21281;-65
2020/12/26 00:35:38;;;;;;;27.62;17.02;;;;;;;9.25;76.91;100035.30;1609435;88;21265;-64
2020/12/26 00:38:05;;;;;;;27.35;16.60;;;;;;;9.23;76.92;100037.96;1603229;89;21740;-65
2020/12/26 00:40:33;;;;;;;25.00;16.37;;;;;;;9.20;76.95;100032.28;1612398;88;21138;-64
2020/12/26 00:43:00;;;;;;;23.47;14.75;;;;;;;9.18;76.82;100042.39;1626906;88;21158;-64
2020/12/26 00:45:27;;;;;;;26.95;16.12;;;;;;;9.14;76.96;100053.36;1602985;89;21307;-65
2020/12/26 00:47:55;;;;;;;22.42;14.83;;;;;;;9.14;76.98;100056.45;1605002;88;21328;-64
2020/12/26 00:50:23;;;;;;;20.00;13.90;;;;;;;9.12;77.07;100058.22;1623477;88;21269;-65
2020/12/26 00:52:51;;;;;;;26.55;15.00;;;;;;;9.17;77.03;100062.52;1620254;87;21320;-64
2020/12/26 00:55:18;;;;;;;24.23;15.60;;;;;;;9.16;77.02;100069.11;1603082;89;21308;-65
2020/12/26 00:57:46;;;;;;;23.75;15.35;;;;;;;9.13;77.01;100071.31;1603348;88;21361;-64
2020/12/26 01:00:14;;;;;;;24.57;15.75;;;;;;;9.15;76.97;100085.30;1623306;88;21138;-65
2020/12/26 01:02:43;;;;;;;22.67;14.07;;;;;;;9.13;76.96;100091.47;1611792;87;21197;-64
2020/12/26 01:05:12;;;;;;;25.02;15.53;;;;;;;9.12;76.83;100090.58;1603096;89;21195;-65
2020/12/26 01:07:40;;;;;;;24.65;16.32;;;;;;;9.09;76.86;100094.55;1612786;88;21131;-66
2020/12/26 01:10:08;;;;;;;25.30;16.42;;;;;;;9.10;76.82;100103.31;1606599;88;21186;-65
2020/12/26 01:12:37;;;;;;;24.40;15.53;;;;;;;9.07;76.84;100117.32;1627865;87;21170;-65
2020/12/26 01:15:04;;;;;;;27.60;14.15;;;;;;;9.04;76.85;100119.55;1629091;88;21570;-65
2020/12/26 01:17:32;;;;;;;25.05;13.85;;;;;;;9.02;76.89;100134.91;1624704;87;21154;-65
2020/12/26 01:20:00;;;;;;;22.30;13.68;;;;;;;9.00;76.87;100149.34;1628379;88;21159;-66
2020/12/26 01:22:27;;;;;;;20.45;13.40;;;;;;;8.98;76.84;100154.19;1628752;87;21606;-65
2020/12/26 01:24:55;;;;;;;24.18;14.70;;;;;;;8.95;76.83;100158.16;1628788;88;21614;-66
2020/12/26 01:27:22;;;;;;;23.07;14.87;;;;;;;8.92;76.92;100163.86;1627776;88;21162;-66
2020/12/26 01:29:50;;;;;;;19.60;13.40;;;;;;;8.91;76.94;100168.68;1614709;88;21629;-66
2020/12/26 01:32:18;;;;;;;19.50;12.43;;;;;;;8.92;76.70;100171.73;1603000;88;21302;-66
2020/12/26 01:34:46;;;;;;;21.50;13.38;;;;;;;8.90;76.68;100169.98;1603614;88;21193;-67
2020/12/26 01:37:15;;;;;;;22.45;13.50;;;;;;;8.88;76.79;100175.69;1619778;88;21203;-65
2020/12/26 01:39:43;;;;;;;23.65;14.87;;;;;;;8.83;76.87;100171.81;1628306;88;21178;-65
2020/12/26 01:42:11;;;;;;;25.48;15.45;;;;;;;8.85;76.74;100171.35;1628787;87;21183;-65
2020/12/26 01:44:39;;;;;;;19.23;12.63;;;;;;;8.76;77.02;100173.63;1623143;87;21134;-65
2020/12/26 01:47:07;;;;;;;14.53;9.60;;;;;;;8.72;77.13;100185.45;1628128;87;21131;-64
2020/12/26 01:49:35;;;;;;;10.28;7.65;;;;;;;8.64;76.17;100190.77;1628702;88;21540;-64
2020/12/26 01:52:02;;;;;;;9.15;6.83;;;;;;;8.42;75.30;100197.42;1628686;87;21634;-65
2020/12/26 01:54:30;;;;;;;10.38;6.37;;;;;;;8.21;74.90;100200.19;1623321;87;21178;-65
2020/12/26 01:56:58;;;;;;;9.78;5.60;;;;;;;8.03;75.16;100188.48;1628075;87;21127;-65
2020/12/26 01:59:28;;;;;;;8.75;5.58;;;;;;;7.86;74.85;100203.39;1628836;88;21179;-65
2020/12/26 02:01:57;;;;;;;6.12;4.50;;;;;;;7.72;74.75;100204.34;1629025;87;21677;-63
2020/12/26 02:04:25;;;;;;;6.28;4.55;;;;;;;7.64;74.32;100207.84;1623040;88;21179;-63
2020/12/26 02:06:55;;;;;;;7.22;3.85;;;;;;;7.48;74.30;100217.48;1609062;88;21231;-62
2020/12/26 02:09:24;;;;;;;;;;;;;;;7.30;74.30;100217.94;1605325;89;21131;-63
2020/12/26 02:11:52;;;;;;;5.05;3.33;;;;;;;7.17;74.43;100214.92;1608682;88;20262;-64
2020/12/26 02:14:20;;;;;;;7.05;4.05;;;;;;;7.07;74.80;100213.62;1605416;88;21185;-63
2020/12/26 02:16:52;;;;;;;5.53;3.40;;;;;;;7.10;74.81;100216.23;1603062;88;21201;-63
2020/12/26 02:19:23;;;;;;;4.37;3.00;;;;;;;7.07;74.77;100234.97;1603417;89;21593;-64
2020/12/26 02:21:51;;;;;;;6.25;3.20;;;;;;;6.95;75.01;100241.09;1614132;88;21281;-64
2020/12/26 02:24:18;;;;;;;6.42;3.75;;;;;;;6.96;75.09;100248.95;1628342;88;21289;-64
2020/12/26 02:26:46;;;;;;;4.45;3.42;;;;;;;6.93;75.12;100250.27;1629220;87;21653;-63
2020/12/26 02:29:13;;;;;;;7.12;3.70;;;;;;;6.78;75.30;100241.97;1628964;87;21143;-63
2020/12/26 02:31:41;;;;;;;6.78;3.77;;;;;;;6.66;75.77;100234.95;1623145;87;21185;-63
2020/12/26 02:34:09;;;;;;;5.45;3.40;;;;;;;6.65;75.71;100242.81;1621639;88;21147;-63
2020/12/26 02:36:37;;;;;;;5.42;2.70;;;;;;;6.62;75.57;100251.54;1629128;87;21317;-63
2020/12/26 02:39:05;;;;;;;5.45;3.37;;;;;;;6.55;75.62;100245.41;1627157;88;21585;-63
2020/12/26 02:41:33;;;;;;;6.45;3.15;;;;;;;6.52;75.82;100245.39;1605380;88;21162;-63
2020/12/26 02:44:00;;;;;;;4.58;3.00;;;;;;;6.48;75.80;100248.88;1628940;88;21167;-64
2020/12/26 02:46:27;;;;;;;3.90;2.58;;;;;;;6.46;75.73;100260.20;1628964;87;21290;-63
2020/12/26 02:48:55;;;;;;;5.97;3.10;;;;;;;6.45;75.70;100261.08;1620917;88;21170;-63
2020/12/26 02:51:23;;;;;;;4.00;2.67;;;;;;;6.36;75.51;100264.09;1613569;87;21312;-63
2020/12/26 02:53:50;;;;;;;3.58;2.65;;;;;;;6.31;75.63;100272.80;1637718;88;21122;-63
2020/12/26 02:56:18;;;;;;;3.42;2.20;;;;;;;6.27;75.60;100286.73;1637962;86;21502;-63
2020/12/26 02:58:46;;;;;;;3.27;2.05;;;;;;;6.24;75.61;100289.77;1632495;88;21202;-63
2020/12/26 03:01:13;;;;;;;4.95;2.67;;;;;;;6.20;75.63;100281.89;1632004;86;21138;-63
2020/12/26 03:03:41;;;;;;;5.17;2.70;;;;;;;6.14;75.72;100281.89;1637723;88;21123;-63
2020/12/26 03:06:12;;;;;;;3.60;2.35;;;;;;;6.21;75.52;100282.33;1636263;86;21175;-64
2020/12/26 03:08:39;;;;;;;4.00;2.50;;;;;;;6.14;75.48;100285.81;1615429;88;21272;-64
2020/12/26 03:11:07;;;;;;;9.88;3.22;;;;;;;6.10;75.48;100283.18;1636514;86;21276;-64
2020/12/26 03:13:35;;;;;;;4.70;2.72;;;;;;;6.07;75.42;100284.89;1611838;89;21644;-64
2020/12/26 03:16:02;;;;;;;3.60;2.55;;;;;;;6.04;75.39;100292.30;1617247;88;21280;-63
2020/12/26 03:18:30;;;;;;;4.25;2.62;;;;;;;6.02;75.58;100296.64;1631605;88;21284;-63
2020/12/26 03:20:59;;;;;;;4.85;2.58;;;;;;;5.97;75.35;100294.39;1628865;86;21277;-64
2020/12/26 03:23:27;;;;;;;5.15;2.85;;;;;;;5.93;75.47;100291.33;1638139;87;21178;-63
2020/12/26 03:25:55;;;;;;;4.58;3.00;;;;;;;5.92;75.49;100286.96;1632569;86;21157;-63
2020/12/26 03:28:22;;;;;;;3.58;2.45;;;;;;;5.92;75.43;100271.28;1624050;87;21146;-63
2020/12/26 03:30:50;;;;;;;3.70;2.58;;;;;;;5.90;75.32;100272.60;1626304;86;21165;-63
2020/12/26 03:33:17;;;;;;;3.72;2.65;;;;;;;5.88;75.55;100278.25;1638052;88;21162;-63
2020/12/26 03:35:45;;;;;;;4.85;2.33;;;;;;;5.89;75.45;100289.56;1635827;86;21178;-63
2020/12/26 03:38:13;;;;;;;3.47;2.27;;;;;;;5.88;75.41;100293.92;1618683;88;21138;-63
2020/12/26 03:40:40;;;;;;;4.58;2.80;;;;;;;5.88;75.50;100297.84;1637972;86;21336;-64
2020/12/26 03:43:08;;;;;;;4.72;2.58;;;;;;;5.86;75.48;100298.27;1636586;88;21522;-64
2020/12/26 03:45:35;;;;;;;10.60;3.10;;;;;;;5.85;75.64;100296.93;1615141;88;21798;-64
2020/12/26 03:48:03;;;;;;;4.20;2.90;;;;;;;5.83;75.68;100279.95;1638122;86;21344;-63
2020/12/26 03:50:33;;;;;;;5.12;2.90;;;;;;;5.83;75.68;100287.80;1638110;88;21189;-63
2020/12/26 03:53:01;;;;;;;4.12;2.55;;;;;;;5.76;75.56;100286.86;1616510;86;21231;-63
2020/12/26 03:55:28;;;;;;;4.62;2.65;;;;;;;5.75;75.60;100290.34;1610150;88;21222;-63
2020/12/26 03:57:57;;;;;;;4.45;2.33;;;;;;;5.74;75.49;100301.66;1624465;87;21235;-63
2020/12/26 04:00:24;;;;;;;4.97;2.60;;;;;;;5.72;75.41;100299.91;1624548;88;21173;-63
2020/12/26 04:02:52;;;;;;;3.65;2.20;;;;;;;5.65;75.08;100286.81;1606137;87;21276;-64
2020/12/26 04:05:21;;;;;;;5.15;2.22;;;;;;;5.52;74.92;100279.75;1617749;88;21653;-63
2020/12/26 04:07:49;;;;;;;4.53;2.35;;;;;;;5.50;75.33;100284.97;1624552;87;21370;-64
2020/12/26 04:10:17;;;;;;;3.92;2.33;;;;;;;5.42;75.55;100275.35;1624180;88;21180;-63
2020/12/26 04:12:44;;;;;;;3.58;1.87;;;;;;;5.34;75.37;100290.52;1600643;88;21336;-63
2020/12/26 04:15:11;;;;;;;4.83;2.45;;;;;;;5.35;75.32;100288.35;1624504;88;21380;-65
2020/12/26 04:17:39;;;;;;;2.62;1.70;;;;;;;5.37;75.34;100298.79;1624815;87;21388;-64
2020/12/26 04:20:06;;;;;;;3.50;1.92;;;;;;;5.38;75.29;100299.67;1616751;88;21366;-63
2020/12/26 04:22:34;;;;;;;4.20;1.87;;;;;;;5.34;74.93;100300.06;1607296;88;21217;-63
2020/12/26 04:25:01;;;;;;;3.25;2.05;;;;;;;5.31;75.20;100315.28;1624498;88;21162;-63
2020/12/26 04:27:29;;;;;;;2.25;1.72;;;;;;;5.27;75.01;100321.78;1624328;87;21208;-63
2020/12/26 04:29:56;;;;;;;12.13;3.17;;;;;;;5.20;74.97;100333.88;1618728;88;21724;-63
2020/12/26 04:32:24;;;;;;;3.40;1.90;;;;;;;5.13;75.00;100343.40;1624122;87;21767;-63
2020/12/26 04:34:51;;;;;;;3.62;1.90;;;;;;;5.09;75.12;100344.23;1624342;88;21779;-63
2020/12/26 04:37:19;;;;;;;4.53;2.02;;;;;;;5.08;75.05;100354.22;1622867;87;21393;-64
2020/12/26 04:39:48;;;;;;;3.10;2.02;;;;;;;5.02;75.31;100365.48;1620106;88;21315;-63
2020/12/26 04:42:16;;;;;;;4.85;1.67;;;;;;;5.04;75.02;100373.30;1624064;87;21392;-62
2020/12/26 04:44:45;;;;;;;3.08;1.82;;;;;;;4.98;75.17;100377.15;1624394;88;21178;-63
2020/12/26 04:47:16;;;;;;;3.17;1.80;;;;;;;4.95;75.19;100371.90;1595974;88;21205;-63
2020/12/26 04:49:43;;;;;;;3.72;2.00;;;;;;;4.91;75.33;100378.83;1614583;88;21210;-64
2020/12/26 04:52:11;;;;;;;4.40;1.62;;;;;;;4.89;75.20;100375.33;1623557;87;21616;-64
2020/12/26 04:54:43;;;;;;;4.40;2.40;;;;;;;4.83;75.24;100371.34;1604915;88;21197;-63
2020/12/26 04:57:11;;;;;;;2.80;1.90;;;;;;;4.80;75.51;100373.92;1613939;87;21193;-63
2020/12/26 04:59:40;;;;;;;3.37;1.90;;;;;;;4.73;75.70;100368.63;1617200;88;21180;-62
2020/12/26 05:02:11;;;;;;;4.28;1.55;;;;;;;4.76;75.72;100361.28;1628259;87;21189;-62
2020/12/26 05:04:38;;;;;;;5.67;2.33;;;;;;;4.75;75.83;100366.05;1627019;88;21202;-63
2020/12/26 05:07:06;;;;;;;3.80;1.70;;;;;;;4.78;75.73;100354.36;1623735;87;21208;-63
2020/12/26 05:09:35;;;;;;;4.20;1.80;;;;;;;4.76;75.74;100356.93;1653274;87;21119;-63
2020/12/26 05:12:03;;;;;;;6.00;2.35;;;;;;;4.78;75.83;100367.80;1655829;85;21191;-63
2020/12/26 05:14:31;;;;;;;5.00;2.42;;;;;;;4.81;76.03;100371.34;1633852;87;21138;-66
2020/12/26 05:17:00;;;;;;;4.72;2.30;;;;;;;4.92;76.65;100368.84;1607507;88;21203;-64
2020/12/26 05:19:29;;;;;;;4.15;2.92;;;;;;;5.06;76.39;100355.52;1628710;88;21184;-63
2020/12/26 05:21:58;;;;;;;8.05;2.37;;;;;;;5.05;76.02;100367.23;1628345;87;21221;-63
2020/12/26 05:24:27;;;;;;;4.62;2.25;;;;;;;5.01;75.58;100384.60;1626250;88;21138;-64
2020/12/26 05:26:54;;;;;;;4.65;2.65;;;;;;;5.01;75.77;100396.75;1627526;88;21238;-63
2020/12/26 05:29:22;;;;;;;4.12;2.40;;;;;;;5.00;75.60;100410.24;1628388;88;21192;-65
2020/12/26 05:31:59;;;;;;;5.15;2.27;;;;;;;5.01;75.67;100428.05;1628131;87;21177;-64
2020/12/26 05:34:34;;;;;;;6.62;2.25;;;;;;;5.08;75.45;100442.06;1624240;88;21188;-65
2020/12/26 05:37:02;;;;;;;7.70;3.50;;;;;;;5.00;75.45;100451.98;1628301;87;21599;-65
2020/12/26 05:39:34;;;;;;;7.17;4.40;;;;;;;4.98;75.64;100468.45;1628441;88;21201;-64
2020/12/26 05:42:02;;;;;;;6.95;3.33;;;;;;;4.94;75.68;100475.38;1622042;87;21189;-63
2020/12/26 05:44:35;;;;;;;4.83;3.00;;;;;;;4.95;75.71;100482.77;1623236;88;21161;-64
2020/12/26 05:47:06;;;;;;;8.20;3.05;;;;;;;5.05;75.50;100486.83;1628311;87;21163;-63
2020/12/26 05:49:37;;;;;;;14.38;4.00;;;;;;;5.07;75.51;100481.61;1628245;88;21213;-63
2020/12/26 05:52:10;;;;;;;13.03;5.70;;;;;;;5.03;75.36;100486.34;1620068;87;21303;-63
2020/12/26 05:54:38;;;;;;;30.43;14.47;;;;;;;5.02;75.58;100502.44;1624091;87;21601;-64
2020/12/26 05:57:11;;;;;;;22.02;10.43;;;;;;;5.04;75.53;100502.45;1624424;87;21664;-63
2020/12/26 05:59:40;;;;;;;21.05;10.38;;;;;;;5.04;75.67;100511.58;1622984;88;21149;-63
2020/12/26 06:02:24;;;;;;;20.72;9.78;;;;;;;5.03;75.47;100517.23;1604272;87;21891;-64
2020/12/26 06:04:58;;;;;;;14.87;7.90;;;;;;;5.01;75.26;100528.50;1598859;90;21213;-63
2020/12/26 06:07:37;;;;;;;17.80;7.45;;;;;;;4.97;75.43;100536.72;1599138;88;21209;-63
2020/12/26 06:10:08;;;;;;;12.68;4.70;;;;;;;4.95;75.33;100540.14;1604443;88;21166;-63
2020/12/26 06:12:36;;;;;;;7.85;4.83;;;;;;;4.94;75.47;100541.00;1623832;87;21239;-64
2020/12/26 06:15:04;;;;;;;10.82;4.20;;;;;;;4.97;75.48;100541.05;1624468;88;21213;-64
2020/12/26 06:17:33;;;;;;;5.17;2.95;;;;;;;5.01;75.62;100535.02;1624324;87;21173;-63
2020/12/26 06:20:06;;;;;;;7.60;2.40;;;;;;;4.99;75.42;100540.64;1603744;88;21185;-63
2020/12/26 06:22:45;;;;;;;11.60;3.40;;;;;;;5.01;75.57;100538.93;1621320;87;21307;-63
2020/12/26 06:25:21;;;;;;;12.50;3.12;;;;;;;5.01;75.56;100538.52;1621197;88;21198;-63
2020/12/26 06:27:59;;;;;;;12.05;3.42;;;;;;;4.93;76.08;100539.25;1622618;87;21210;-63
2020/12/26 06:30:28;;;;;;;11.45;3.08;;;;;;;5.05;76.06;100544.64;1623762;88;21210;-63
2020/12/26 06:32:57;;;;;;;8.18;2.83;;;;;;;5.04;75.97;100556.82;1624452;87;21197;-63
2020/12/26 06:35:25;;;;;;;6.00;2.70;;;;;;;5.05;75.95;100560.29;1624336;88;21187;-64
2020/12/26 06:38:29;;;;;;;9.20;3.02;;;;;;;5.06;75.87;100566.85;1623231;87;21189;-63
2020/12/26 06:41:03;;;;;;;7.72;2.85;;;;;;;5.13;75.83;100569.52;1600848;87;21216;-64
2020/12/26 06:43:47;;;;;;;6.25;2.70;;;;;;;5.16;76.06;100590.43;1620964;88;21720;-63
2020/12/26 06:46:23;;;;;;;6.33;3.02;;;;;;;5.19;76.09;100583.54;1621812;87;21323;-63
2020/12/26 06:48:55;;;;;;;9.98;2.98;;;;;;;5.22;76.11;100578.77;1624474;88;21141;-59
2020/12/26 06:51:30;;;;;;;6.45;2.80;;;;;;;5.30;76.68;100591.50;1624397;87;21177;-59
2020/12/26 06:53:59;;;;;;;8.23;2.87;;;;;;;5.49;76.99;100596.96;1634147;88;21207;-62
2020/12/26 06:56:38;;;;;;;6.80;2.95;;;;;;;5.63;76.74;100600.59;1616198;88;21202;-63
2020/12/26 06:59:10;;;;;;;4.97;2.45;;;;;;;5.73;76.27;100597.67;1637726;87;21187;-63
2020/12/26 07:01:42;;;;;;;3.33;1.80;;;;;;;5.70;75.42;100588.91;1637805;86;21623;-63
2020/12/26 07:04:18;;;;;;;7.60;2.35;;;;;;;5.62;75.58;100601.89;1635930;86;21562;-62
2020/12/26 07:06:53;;;;;;;4.47;2.20;;;;;;;5.56;75.67;100601.38;1637951;86;21959;-63
2020/12/26 07:09:42;;;;;;;14.75;3.17;;;;;;;5.53;75.58;100595.25;1637990;88;21135;-62
2020/12/26 07:14:48;;;;;;;4.80;2.47;;;;;;;5.54;75.72;100589.17;1808269;77;22193;-62
2020/12/26 07:17:24;;;;;;;5.08;2.42;;;;;;;5.47;75.41;100591.70;1754680;80;21160;-63
2020/12/26 07:19:53;;;;;;;8.05;2.65;;;;;;;5.47;75.62;100589.53;1762658;81;21134;-64
2020/12/26 07:22:31;;;;;;;5.47;2.02;;;;;;;5.49;75.83;100580.85;1751407;80;21205;-63
2020/12/26 07:25:06;;;;;;;4.58;2.62;;;;;;;5.58;75.37;100570.93;1731858;83;21597;-64
2020/12/26 07:27:41;;;;;;;4.05;2.08;;;;;;;5.57;75.58;100573.55;1752805;81;21117;-63
2020/12/26 07:30:12;;;;;;;5.72;2.40;;;;;;;;;;1765162;81;21526;-64
2020/12/26 07:32:52;;;;;;;3.67;2.35;;;;;;;5.64;75.67;100586.67;1740922;80;21221;-63
2020/12/26 07:35:26;;;;;;;3.77;2.40;;;;;;;5.65;75.58;100575.37;1731243;83;21165;-63
2020/12/26 07:38:10;;;;;;;4.12;3.05;;;;;;;5.70;75.42;100592.83;1751481;81;21288;-64
2020/12/26 07:40:46;;;;;;;3.12;1.90;;;;;;;5.73;75.29;100597.67;1757004;80;21137;-63
2020/12/26 07:43:16;;;;;;;3.85;2.67;;;;;;;5.75;75.22;100601.59;1731896;83;21199;-63
2020/12/26 07:45:46;;;;;;;3.27;2.37;;;;;;;5.74;75.63;100604.62;1747653;80;21179;-63
2020/12/26 07:48:14;;;;;;;3.90;2.60;;;;;;;5.81;75.51;100604.28;1777798;81;21175;-63
2020/12/26 07:50:43;;;;;;;4.60;2.42;;;;;;;5.80;75.35;100593.38;1761383;80;21150;-63
2020/12/26 07:53:13;;;;;;;4.22;2.87;;;;;;;5.84;75.52;100603.01;1761755;81;21173;-62
2020/12/26 07:55:41;;;;;;;3.77;2.30;;;;;;;5.89;75.62;100610.88;1761193;81;21766;-63
2020/12/26 07:58:13;;;;;;;5.17;2.22;;;;;;;5.87;75.88;100606.96;1751523;80;21158;-63
2020/12/26 08:00:43;;;;;;;4.17;2.50;;;;;;;5.90;75.97;100614.83;1733606;81;21153;-63
2020/12/26 08:03:12;;;;;;;3.03;2.03;;;;;;;5.95;75.83;100601.81;1730960;82;21154;-63
2020/12/26 08:05:48;;;;;;;3.83;2.47;;;;;;;6.02;76.32;100602.35;1768504;80;21586;-63
2020/12/26 08:08:21;;;;;;;4.37;2.67;;;;;;;6.09;76.22;100598.95;1757231;80;21201;-64
2020/12/26 08:10:57;;;;;;;3.90;2.50;;;;;;;6.15;76.11;100599.42;1731724;81;21165;-61
2020/12/26 08:13:27;;;;;;;3.42;2.25;;;;;;;6.25;75.81;100604.30;1708270;82;21319;-63
2020/12/26 08:16:05;;;;;;;3.95;3.00;;;;;;;6.23;75.80;100602.98;1717862;81;21499;-62
2020/12/26 08:18:35;;;;;;;3.42;2.47;;;;;;;6.28;75.84;100598.23;1716219;83;21128;-62
2020/12/26 08:21:06;;;;;;;4.58;2.40;;;;;;;6.24;75.16;100603.84;1721088;82;21161;-62
2020/12/26 08:24:01;;;;;;;5.60;2.65;;;;;;;6.17;75.05;100606.84;1691714;84;21563;-63
2020/12/26 08:26:31;;;;;;;3.70;2.15;;;;;;;6.12;75.08;100611.59;1690324;84;21107;-61
2020/12/26 08:29:03;;;;;;;3.85;2.20;;;;;;;6.06;74.94;100613.28;1684299;85;22720;-62
2020/12/26 08:31:32;;;;;;;3.83;2.50;;;;;;;6.05;75.17;100614.56;1667782;85;21146;-62
2020/12/26 08:34:09;;;;;;;3.77;2.25;;;;;;;6.04;75.19;100616.72;1680217;85;21592;-62
2020/12/26 08:36:45;;;;;;;4.00;2.70;;;;;;;6.05;75.26;100622.40;1676387;85;21156;-63
2020/12/26 08:39:15;;;;;;;5.53;2.90;;;;;;;6.13;75.67;100620.74;1669795;85;21541;-64
2020/12/26 08:41:42;;;;;;;5.12;2.95;;;;;;;6.23;75.81;100619.09;1651439;85;21142;-63
2020/12/26 08:44:11;;;;;;;4.47;2.83;;;;;;;6.30;75.62;100630.50;1658941;85;21304;-63
2020/12/26 08:46:45;;;;;;;7.87;2.70;;;;;;;6.35;75.52;100633.59;1693966;85;21251;-64
2020/12/26 08:49:14;;;;;;;3.52;2.60;;;;;;;6.42;75.31;100631.03;1693955;85;21577;-64
2020/12/26 08:51:44;;;;;;;3.42;2.33;;;;;;;6.48;75.43;100625.86;1679374;85;21625;-64
2020/12/26 08:54:22;;;;;;;4.45;2.45;;;;;;;6.54;75.55;100626.77;1693742;85;21182;-63
2020/12/26 08:56:50;;;;;;;4.30;2.60;;;;;;;6.56;74.96;100617.66;1673464;85;21154;-62
2020/12/26 08:59:30;;;;;;;3.58;2.55;;;;;;;6.60;74.99;100623.77;1657944;86;21322;-62
2020/12/26 09:01:58;;;;;;;47.93;11.55;;;;;;;6.63;75.34;100618.56;1660022;85;21308;-62
2020/12/26 09:04:29;;;;;;;8.35;5.00;;;;;;;6.66;75.67;100615.53;1691057;85;21194;-62
2020/12/26 09:06:58;;;;;;;21.12;13.83;;;;;;;6.72;75.67;100616.02;1678006;85;21292;-61
2020/12/26 09:09:29;;;;;;;7.50;4.60;;;;;;;6.74;74.92;100622.15;1679918;85;21170;-61
2020/12/26 09:12:03;;;;;;;4.72;3.27;;;;;;;6.75;74.61;100617.77;1661261;84;21566;-62
2020/12/26 09:14:31;;;;;;;4.40;3.00;;;;;;;6.75;74.27;100623.90;1669780;84;21146;-62
2020/12/26 09:17:02;;;;;;;5.12;3.22;;;;;;;6.71;74.04;100615.58;1674387;86;21656;-63
2020/12/26 09:19:45;;;;;;;4.87;2.95;;;;;;;6.72;73.88;100616.44;1675006;86;21214;-62
2020/12/26 09:22:13;;;;;;;3.42;2.25;;;;;;;6.70;73.74;100615.14;1682449;85;21202;-64
2020/12/26 09:24:40;;;;;;;3.05;2.17;;;;;;;6.74;73.74;100605.14;1691243;84;21629;-61
2020/12/26 09:27:21;;;;;;;4.15;2.60;;;;;;;6.75;73.79;100612.12;1697771;84;21146;-63
2020/12/26 09:29:54;;;;;;;3.30;2.20;;;;;;;6.73;73.99;100630.86;1692475;83;21130;-63
2020/12/26 09:32:20;;;;;;;4.45;2.58;;;;;;;6.77;73.83;100634.36;1673853;84;21612;-63
2020/12/26 09:34:47;;;;;;;4.83;2.40;;;;;;;6.83;74.06;100633.10;1690239;84;21166;-63
2020/12/26 09:37:16;;;;;;;4.30;2.47;;;;;;;6.88;74.23;100626.58;1689129;84;21161;-63
2020/12/26 09:39:46;;;;;;;;;;;;;;;6.94;74.49;100629.24;1693640;83;21201;-64
2020/12/26 09:42:14;;;;;;;3.47;2.00;;;;;;;6.97;74.38;100639.31;1683153;84;20151;-64
2020/12/26 09:44:42;;;;;;;3.75;2.17;;;;;;;7.02;74.17;100665.51;1701324;84;21205;-63
2020/12/26 09:47:10;;;;;;;4.70;2.85;;;;;;;7.12;74.68;100686.06;1703506;83;21189;-64
2020/12/26 09:49:37;;;;;;;4.60;2.35;;;;;;;7.18;73.94;100700.52;1700714;84;21186;-64
2020/12/26 09:52:04;;;;;;;4.05;2.58;;;;;;;7.10;72.96;100713.97;1703669;84;21137;-60
2020/12/26 09:54:34;;;;;;;5.03;2.75;;;;;;;7.05;73.50;100712.64;1702049;84;21173;-61
2020/12/26 09:57:01;;;;;;;3.45;2.33;;;;;;;7.13;74.24;100709.66;1666599;84;21297;-59
2020/12/26 09:59:29;;;;;;;5.47;2.50;;;;;;;7.24;74.36;100698.39;1650285;87;21327;-60
2020/12/26 10:01:56;;;;;;;3.47;2.17;;;;;;;7.32;74.26;100686.64;1682660;84;21621;-62
2020/12/26 10:04:24;;;;;;;3.87;2.08;;;;;;;7.34;73.46;100674.44;1640002;87;21626;-60
2020/12/26 10:06:51;;;;;;;3.83;2.70;;;;;;;7.33;73.24;100670.06;1630439;86;21135;-62
2020/12/26 10:09:19;;;;;;;3.25;2.10;;;;;;;7.32;73.41;100677.48;1653536;86;21142;-62
2020/12/26 10:11:47;;;;;;;4.12;2.35;;;;;;;7.31;72.82;100685.75;1648577;86;21219;-64
2020/12/26 10:14:15;;;;;;;3.70;2.27;;;;;;;7.25;72.91;100697.08;1640965;87;21205;-65
2020/12/26 10:16:44;;;;;;;2.95;1.85;;;;;;;7.18;72.80;100688.73;1664480;86;21158;-63
2020/12/26 10:19:12;;;;;;;2.80;1.90;;;;;;;7.15;72.65;100691.33;1650696;87;21628;-62
2020/12/26 10:21:40;;;;;;;3.30;2.08;;;;;;;7.06;72.25;100689.98;1651528;87;21650;-62
2020/12/26 10:24:07;;;;;;;4.62;2.20;;;;;;;7.03;72.25;100691.27;1692486;84;21305;-63
2020/12/26 10:26:36;;;;;;;3.15;2.08;;;;;;;7.00;72.64;100680.32;1664642;86;21162;-62
2020/12/26 10:29:03;;;;;;;4.45;2.90;;;;;;;7.02;72.45;100691.68;1675563;84;21634;-63
2020/12/26 10:31:32;;;;;;;17.77;8.80;;;;;;;7.02;72.60;100702.59;1648841;86;21306;-63
2020/12/26 10:34:01;;;;;;;7.62;4.35;;;;;;;7.07;72.66;100672.06;1678750;84;21199;-63
2020/12/26 10:36:28;;;;;;;4.83;3.02;;;;;;;7.14;72.51;100641.14;1677903;85;21163;-63
2020/12/26 10:38:56;;;;;;;3.40;2.15;;;;;;;7.11;71.97;100653.80;1676013;85;21586;-63
2020/12/26 10:41:23;;;;;;;4.78;2.22;;;;;;;7.05;70.58;100681.23;1648651;86;21194;-63
2020/12/26 10:43:51;;;;;;;3.60;2.42;;;;;;;7.00;71.73;100679.02;1648771;87;21238;-63
2020/12/26 10:46:18;;;;;;;3.47;2.20;;;;;;;6.97;72.15;100675.95;1661695;86;21230;-63
2020/12/26 10:48:46;;;;;;;3.58;1.90;;;;;;;6.97;71.54;100679.88;1681728;85;21143;-63
2020/12/26 10:51:14;;;;;;;2.62;1.80;;;;;;;6.90;71.68;100670.64;1687877;84;21598;-63
2020/12/26 10:53:42;;;;;;;3.00;2.05;;;;;;;6.88;72.16;100666.72;1697562;83;21190;-62
2020/12/26 10:56:09;;;;;;;3.40;2.10;;;;;;;6.88;72.17;100667.13;1691067;84;21213;-62
2020/12/26 10:58:38;;;;;;;2.90;2.05;;;;;;;6.89;72.11;100675.02;1668715;85;21156;-62
2020/12/26 11:01:05;;;;;;;4.17;2.17;;;;;;;6.88;71.63;100668.03;1689928;84;21212;-62
2020/12/26 11:03:33;;;;;;;5.92;2.10;;;;;;;6.91;71.89;100673.70;1697546;84;21170;-63
2020/12/26 11:06:01;;;;;;;4.37;1.72;;;;;;;6.96;71.57;100668.08;1686991;84;21185;-63
2020/12/26 11:08:28;;;;;;;3.12;1.87;;;;;;;7.01;71.77;100665.52;1682016;84;21203;-62
2020/12/26 11:10:56;;;;;;;3.42;2.02;;;;;;;6.99;71.79;100662.45;1697981;83;21609;-64
2020/12/26 11:13:23;;;;;;;5.42;2.00;;;;;;;7.03;71.74;100662.02;1697835;83;21586;-65
2020/12/26 11:15:51;;;;;;;6.90;2.15;;;;;;;7.08;71.36;100668.17;1682101;83;21181;-63
2020/12/26 11:18:18;;;;;;;3.95;2.12;;;;;;;7.12;71.82;100675.18;1681445;84;21159;-62
2020/12/26 11:20:48;;;;;;;2.37;1.62;;;;;;;7.15;71.52;100675.62;1677533;85;21219;-64
2020/12/26 11:23:17;;;;;;;5.67;2.08;;;;;;;7.21;71.40;100674.80;1670686;85;21634;-63
2020/12/26 11:25:44;;;;;;;6.85;2.98;;;;;;;7.26;71.67;100666.09;1679668;85;21313;-63
2020/12/26 11:28:12;;;;;;;6.03;2.47;;;;;;;7.25;70.94;100672.20;1685828;84;21515;-63
2020/12/26 11:30:39;;;;;;;6.10;1.95;;;;;;;7.32;71.29;100681.41;1685224;85;21336;-64
2020/12/26 11:33:07;;;;;;;7.20;2.02;;;;;;;7.38;71.76;100695.40;1660340;85;21198;-63
2020/12/26 11:35:35;;;;;;;5.58;2.22;;;;;;;7.39;71.17;100691.05;1679423;83;21669;-63
2020/12/26 11:38:02;;;;;;;4.60;1.80;;;;;;;7.50;71.14;100689.80;1679440;85;21214;-64
2020/12/26 11:40:30;;;;;;;4.25;2.10;;;;;;;7.54;71.53;100696.81;1691160;85;21625;-63
2020/12/26 11:42:57;;;;;;;6.30;2.52;;;;;;;7.57;71.43;100710.78;1690638;85;21197;-63
2020/12/26 11:45:25;;;;;;;5.17;2.70;;;;;;;7.60;71.18;100703.39;1691305;84;21194;-63